Aviation Digital Data Service (ADDS)

Output produced by METARs form (0019 UTC 27 June 2017)
found at http://www.aviationweather.gov/adds/metars/
 
KROW 262351Z 14007KT 10SM CLR 31/13 A3006 RMK AO2 SLP117 T03060128 10317 20244 58024
KROW 262251Z 16008KT 10SM CLR 31/13 A3010 RMK AO2 SLP129 T03060128
KROW 262151Z 09006KT 10SM CLR 30/14 A3013 RMK AO2 SLP138 T03000139
KROW 262051Z 18005KT 10SM CLR 29/15 A3014 RMK AO2 SLP144 T02940150 58028
KROW 261951Z 00000KT 10SM FEW040 28/15 A3017 RMK AO2 SLP157 T02780150
KROW 261851Z VRB03KT 10SM SCT035 27/15 A3021 RMK AO2 SLP171 T02670150
KROW 261751Z 10SM FEW028 26/16 A3024 RMK AO2 SLP181 T02560156 10256 20178 58018
KROW 261651Z VRB03KT 10SM CLR 23/15 A3026 RMK AO2 SLP192 T02330150
KROW 261607Z 00000KT 10SM FEW019 22/14 A3028 RMK AO2 T02220144
KROW 261551Z VRB03KT 10SM BKN019 22/15 A3028 RMK AO2 SLP199 T02220150
KROW 261451Z 08004KT 10SM OVC016 19/14 A3029 RMK AO2 SLP196 T01940144 53009
KROW 261429Z 09005KT 10SM BKN017 19/14 A3029 RMK AO2 T01940144
KROW 261351Z 01005KT 10SM CLR 19/16 A3028 RMK AO2 SLP192 T01890156
KROW 261251Z 06005KT 10SM FEW046 18/16 A3027 RMK AO2 SLP188 T01780156
KROW 261214Z 08003KT 10SM SCT013 BKN043 18/15 A3027 RMK AO2 T01780150 $
KROW 261151Z 10004KT 10SM BKN013 OVC039 18/16 A3026 RMK AO2 SLP184 70010 T01830156 10194 20183 53003 $
KROW 261101Z AUTO 16004KT 10SM OVC014 18/16 A3026 RMK AO2 T01830156 $
KROW 261051Z AUTO 16003KT 10SM BKN015 BKN045 18/16 A3026 RMK AO2 SLP184 T01830156 $
KROW 260951Z AUTO 14005KT 10SM BKN035 19/16 A3025 RMK AO2 SLP180 T01890161 $
KROW 260851Z AUTO 13006KT 10SM CLR 19/17 A3025 RMK AO2 SLP180 T01890167 50009 $
KROW 260751Z AUTO 34006KT 10SM CLR 19/17 A3026 RMK AO2 SLP180 T01890167 $
KROW 260651Z AUTO 00000KT 10SM FEW008 19/17 A3024 RMK AO2 SLP176 T01890167 403330183 $
KROW 260637Z AUTO 36004KT 10SM FEW007 18/16 A3023 RMK AO2 T01830161 $
KROW 260551Z AUTO 09005KT 10SM FEW100 SCT110 18/16 A3022 RMK AO2 LTG DSNT SE RAE0458 SLP175 P0000 60010 T01830161 10322 20183 50018 $
KROW 260451Z AUTO 06012KT 10SM -RA SCT120 18/16 A3024 RMK AO2 PK WND 02026/0402 WSHFT 0339 LTG DSNT E AND SE TSE00 SLP179 P0009 T01830161 $
KROW 260413Z AUTO 35012KT 5SM +RA BKN070 OVC100 19/16 A3026 RMK AO2 PK WND 02026/0402 WSHFT 0339 LTG DSNT E-SW TSE00 P0007 T01890161 $
KROW 260406Z AUTO 01017G26KT 6SM VCTS RA SCT075 OVC100 19/16 A3026 RMK AO2 PK WND 02026/0402 WSHFT 0339 LTG DSNT ALQDS TSE00 P0004 T01890161 $
KROW 260359Z AUTO 01016G22KT 7SM TSRA FEW080 OVC100 20/16 A3026 RMK AO2 WSHFT 0339 LTG DSNT ALQDS P0002 T02000161 $
KROW 260351Z AUTO 36013G22KT 8SM TSRA OVC100 19/16 A3026 RMK AO2 PK WND 30039/0314 WSHFT 0249 LTG DSNT ALQDS RAB04 TSB34 PRESRR SLP191 P0001 T01940161 $
KROW 260340Z AUTO 31017G28KT 10SM -TSRA FEW075 OVC100 21/15 A3023 RMK AO2 PK WND 30039/0314 WSHFT 0249 LTG DSNT ALQDS RAB04 TSB34 PRESRR T02060150 PNO $
KROW 260303Z AUTO 30030G39KT 7SM VCTS BKN075 BKN095 24/13 A3015 RMK AO2 PK WND 30039/0302 WSHFT 0249 LTG DSNT ALQDS T02440128
KROW 260251Z AUTO 25012KT 10SM SCT080 29/13 A3017 RMK AO2 LTG DSNT SW-N PRESRR SLP146 T02940128 53022
KROW 260151Z 19009KT 10SM FEW080 30/13 A3012 RMK AO2 SLP133 T03000128
KROW 260051Z 18015KT 10SM CLR 31/13 A3007 RMK AO2 SLP116 T03060128
KROW 262320Z 2700/2724 14008KT P6SM FEW050 
     TEMPO 2703/2706 VRB20G35KT 5SM -TSRA OVC030CB 
     FM270600 17006KT P6SM BKN060 
     FM271600 16010KT P6SM SCT060 
     FM272200 17013G20KT P6SM VCTS BKN070CB